aviador You're here:

KWVL Decoded Metar

WATERVILLE in ME, USA
Report Time2018-01-19 10:56:00
UTC Time2018-01-19 11:21:12
Flight Rules mvfr MVFR
WindCalm
Visibility9999 m
Phenomena:N/A
Clouds:Overcast 029 Hf
Expected CloudBase > 400 ft AGL from Temp-Dew spread
Ceiling2,900 ft
Temp-10°C (ISA -24)
Dew Point-11°C (92% RH)
AAT-13.1°C
QNH1010 hPa
Density Alt-2,569 ft
Elevation331 ft
Report Wrong Elevation
Raw Report
KWVL 191056Z AUTO 00000KT 10SM OVC029 M10/M11 A2984 RMK AO2 SLP140
T11001111 FZRANO=

Extra information for KWVL:More info

Metar Taf Metar & Taf Last 4 Metars F.Rules Stats Wind Profile Meteogram Temp Stats Airport Information Weather charts Add Link Nearby VenuesMetar ALERT Operation Metar Decoded Social comments

AIRNAV info for KWVL